sensor_id;sensor_type;location;lat;lon;timestamp;pressure;altitude;pressure_sealevel;temperature;humidity
34241;BME280;20503;50.200;19.508;2023-06-24T04:05:58;101171.07;;;19.61;100.00
34241;BME280;20503;50.200;19.508;2023-06-24T04:11:06;101158.14;;;19.49;100.00
34241;BME280;20503;50.200;19.508;2023-06-24T04:16:14;101147.23;;;19.42;100.00
34241;BME280;20503;50.200;19.508;2023-06-24T04:21:21;101157.93;;;19.54;100.00
34241;BME280;20503;50.200;19.508;2023-06-24T04:26:29;101148.90;;;19.43;100.00
34241;BME280;20503;50.200;19.508;2023-06-24T04:31:37;101141.70;;;19.44;100.00
34241;BME280;20503;50.200;19.508;2023-06-24T04:36:45;101091.11;;;19.11;100.00
34241;BME280;20503;50.200;19.508;2023-06-24T04:41:52;101102.05;;;19.18;100.00
34241;BME280;20503;50.200;19.508;2023-06-24T04:47:00;101081.87;;;19.06;100.00
34241;BME280;20503;50.200;19.508;2023-06-24T04:52:08;56.45;;;186.76;0.00
34241;BME280;20503;50.200;19.508;2023-06-24T04:57:32;56.45;;;186.76;0.00
34241;BME280;20503;50.200;19.508;2023-06-24T05:02:30;56.45;;;186.76;0.00
34241;BME280;20503;50.200;19.508;2023-06-24T05:07:33;56.45;;;186.76;0.00
34241;BME280;20503;50.200;19.508;2023-06-24T05:12:42;56.45;;;186.76;0.00
34241;BME280;20503;50.200;19.508;2023-06-24T05:17:50;56.45;;;186.76;0.00
34241;BME280;20503;50.200;19.508;2023-06-24T05:22:59;56.45;;;186.76;0.00
34241;BME280;20503;50.200;19.508;2023-06-24T05:28:08;56.45;;;186.76;0.00
34241;BME280;20503;50.200;19.508;2023-06-24T05:33:16;56.45;;;186.76;0.00
34241;BME280;20503;50.200;19.508;2023-06-24T05:38:24;56.45;;;186.76;0.00
34241;BME280;20503;50.200;19.508;2023-06-24T05:43:33;56.45;;;186.76;0.00
34241;BME280;20503;50.200;19.508;2023-06-24T05:48:41;56.45;;;186.76;0.00
34241;BME280;20503;50.200;19.508;2023-06-24T05:53:51;56.45;;;186.76;0.00
34241;BME280;20503;50.200;19.508;2023-06-24T05:58:59;56.45;;;186.76;0.00
34241;BME280;20503;50.200;19.508;2023-06-24T06:04:08;56.45;;;186.76;0.00
34241;BME280;20503;50.200;19.508;2023-06-24T06:09:17;56.45;;;186.76;0.00
34241;BME280;20503;50.200;19.508;2023-06-24T06:14:25;56.45;;;186.76;0.00
34241;BME280;20503;50.200;19.508;2023-06-24T06:19:33;56.45;;;186.76;0.00
34241;BME280;20503;50.200;19.508;2023-06-24T06:24:42;56.45;;;186.76;0.00
34241;BME280;20503;50.200;19.508;2023-06-24T06:29:50;56.45;;;186.76;0.00
34241;BME280;20503;50.200;19.508;2023-06-24T06:34:58;56.45;;;186.76;0.00
34241;BME280;20503;50.200;19.508;2023-06-24T06:40:07;56.45;;;186.76;0.00
34241;BME280;20503;50.200;19.508;2023-06-24T06:45:15;56.45;;;186.76;0.00
34241;BME280;20503;50.200;19.508;2023-06-24T06:50:23;56.45;;;186.76;0.00
34241;BME280;20503;50.200;19.508;2023-06-24T06:55:31;56.45;;;186.76;0.00
34241;BME280;20503;50.200;19.508;2023-06-24T07:00:40;56.45;;;186.76;0.00
34241;BME280;20503;50.200;19.508;2023-06-24T07:05:49;56.45;;;186.76;0.00
34241;BME280;20503;50.200;19.508;2023-06-24T07:10:57;56.45;;;186.76;0.00
34241;BME280;20503;50.200;19.508;2023-06-24T07:16:05;56.45;;;186.76;0.00
34241;BME280;20503;50.200;19.508;2023-06-24T07:21:14;56.45;;;186.76;0.00
34241;BME280;20503;50.200;19.508;2023-06-24T07:26:22;56.45;;;186.76;0.00
34241;BME280;20503;50.200;19.508;2023-06-24T07:31:30;56.45;;;186.76;0.00
34241;BME280;20503;50.200;19.508;2023-06-24T07:36:38;56.45;;;186.76;0.00
34241;BME280;20503;50.200;19.508;2023-06-24T07:41:47;56.45;;;186.76;0.00
34241;BME280;20503;50.200;19.508;2023-06-24T07:46:55;56.45;;;186.76;0.00
34241;BME280;20503;50.200;19.508;2023-06-24T07:52:04;56.45;;;186.76;0.00
34241;BME280;20503;50.200;19.508;2023-06-24T07:57:12;56.45;;;186.76;0.00
34241;BME280;20503;50.200;19.508;2023-06-24T08:02:20;56.45;;;186.76;0.00
34241;BME280;20503;50.200;19.508;2023-06-24T08:07:28;56.45;;;186.76;0.00
34241;BME280;20503;50.200;19.508;2023-06-24T08:12:36;56.45;;;186.76;0.00
34241;BME280;20503;50.200;19.508;2023-06-24T08:17:53;56.45;;;186.76;0.00
34241;BME280;20503;50.200;19.508;2023-06-24T08:22:54;56.45;;;186.76;0.00
34241;BME280;20503;50.200;19.508;2023-06-24T08:28:01;56.45;;;186.76;0.00
34241;BME280;20503;50.200;19.508;2023-06-24T08:33:10;56.45;;;186.76;0.00
34241;BME280;20503;50.200;19.508;2023-06-24T08:38:18;56.45;;;186.76;0.00
34241;BME280;20503;50.200;19.508;2023-06-24T08:43:26;56.45;;;186.76;0.00
34241;BME280;20503;50.200;19.508;2023-06-24T08:48:35;56.45;;;186.76;0.00
34241;BME280;20503;50.200;19.508;2023-06-24T08:53:44;56.45;;;186.76;0.00
34241;BME280;20503;50.200;19.508;2023-06-24T08:58:51;56.45;;;186.76;0.00
34241;BME280;20503;50.200;19.508;2023-06-24T09:04:00;56.45;;;186.76;0.00
34241;BME280;20503;50.200;19.508;2023-06-24T09:09:18;56.45;;;186.76;0.00
34241;BME280;20503;50.200;19.508;2023-06-24T09:14:21;56.45;;;186.76;0.00
34241;BME280;20503;50.200;19.508;2023-06-24T09:19:26;56.45;;;186.76;0.00
34241;BME280;20503;50.200;19.508;2023-06-24T09:24:35;56.45;;;186.76;0.00
34241;BME280;20503;50.200;19.508;2023-06-24T09:29:43;56.45;;;186.76;0.00
34241;BME280;20503;50.200;19.508;2023-06-24T09:34:51;56.45;;;186.76;0.00
34241;BME280;20503;50.200;19.508;2023-06-24T09:39:59;56.45;;;186.76;0.00
34241;BME280;20503;50.200;19.508;2023-06-24T09:45:08;56.45;;;186.76;0.00
34241;BME280;20503;50.200;19.508;2023-06-24T09:50:16;56.45;;;186.76;0.00
34241;BME280;20503;50.200;19.508;2023-06-24T09:55:25;56.45;;;186.76;0.00
34241;BME280;20503;50.200;19.508;2023-06-24T10:00:33;56.45;;;186.76;0.00
34241;BME280;20503;50.200;19.508;2023-06-24T10:05:42;56.45;;;186.76;0.00
34241;BME280;20503;50.200;19.508;2023-06-24T10:10:49;56.45;;;186.76;0.00
34241;BME280;20503;50.200;19.508;2023-06-24T10:15:58;56.45;;;186.76;0.00
34241;BME280;20503;50.200;19.508;2023-06-24T10:21:08;56.45;;;186.76;0.00
34241;BME280;20503;50.200;19.508;2023-06-24T10:26:30;56.45;;;186.76;0.00
34241;BME280;20503;50.200;19.508;2023-06-24T10:36:41;56.45;;;186.76;0.00
34241;BME280;20503;50.200;19.508;2023-06-24T10:41:45;56.45;;;186.76;0.00
34241;BME280;20503;50.200;19.508;2023-06-24T10:46:55;56.45;;;186.76;0.00
34241;BME280;20503;50.200;19.508;2023-06-24T10:51:57;56.45;;;186.76;0.00
34241;BME280;20503;50.200;19.508;2023-06-24T10:57:06;56.45;;;186.76;0.00
34241;BME280;20503;50.200;19.508;2023-06-24T11:02:14;56.45;;;186.76;0.00
34241;BME280;20503;50.200;19.508;2023-06-24T11:07:23;56.45;;;186.76;0.00
34241;BME280;20503;50.200;19.508;2023-06-24T11:12:32;56.45;;;186.76;0.00
34241;BME280;20503;50.200;19.508;2023-06-24T11:17:39;56.45;;;186.76;0.00
34241;BME280;20503;50.200;19.508;2023-06-24T11:22:46;56.45;;;186.76;0.00
34241;BME280;20503;50.200;19.508;2023-06-24T11:27:55;56.45;;;186.76;0.00
34241;BME280;20503;50.200;19.508;2023-06-24T11:33:05;56.45;;;186.76;0.00
34241;BME280;20503;50.200;19.508;2023-06-24T11:38:11;56.45;;;186.76;0.00
34241;BME280;20503;50.200;19.508;2023-06-24T11:43:20;56.45;;;186.76;0.00
34241;BME280;20503;50.200;19.508;2023-06-24T11:48:28;56.45;;;186.76;0.00
34241;BME280;20503;50.200;19.508;2023-06-24T11:53:45;56.45;;;186.76;0.00
34241;BME280;20503;50.200;19.508;2023-06-24T11:58:49;56.45;;;186.76;0.00
34241;BME280;20503;50.200;19.508;2023-06-24T12:03:53;56.45;;;186.76;0.00
34241;BME280;20503;50.200;19.508;2023-06-24T12:09:02;56.45;;;186.76;0.00
34241;BME280;20503;50.200;19.508;2023-06-24T12:14:10;56.45;;;186.76;0.00
34241;BME280;20503;50.200;19.508;2023-06-24T12:19:18;56.45;;;186.76;0.00
34241;BME280;20503;50.200;19.508;2023-06-24T12:24:26;56.45;;;186.76;0.00
34241;BME280;20503;50.200;19.508;2023-06-24T12:29:34;56.45;;;186.76;0.00
34241;BME280;20503;50.200;19.508;2023-06-24T12:34:43;56.45;;;186.76;0.00
34241;BME280;20503;50.200;19.508;2023-06-24T12:39:51;56.45;;;186.76;0.00
34241;BME280;20503;50.200;19.508;2023-06-24T12:45:00;56.45;;;186.76;0.00
34241;BME280;20503;50.200;19.508;2023-06-24T12:50:09;56.45;;;186.76;0.00
34241;BME280;20503;50.200;19.508;2023-06-24T12:55:16;56.45;;;186.76;0.00
34241;BME280;20503;50.200;19.508;2023-06-24T13:00:25;56.45;;;186.76;0.00
34241;BME280;20503;50.200;19.508;2023-06-24T13:05:34;56.45;;;186.76;0.00
34241;BME280;20503;50.200;19.508;2023-06-24T13:10:42;56.45;;;186.76;0.00
34241;BME280;20503;50.200;19.508;2023-06-24T13:15:51;56.45;;;186.76;0.00
34241;BME280;20503;50.200;19.508;2023-06-24T13:20:59;56.45;;;186.76;0.00
34241;BME280;20503;50.200;19.508;2023-06-24T13:26:08;56.45;;;186.76;0.00
34241;BME280;20503;50.200;19.508;2023-06-24T13:31:16;56.45;;;186.76;0.00
34241;BME280;20503;50.200;19.508;2023-06-24T13:36:32;56.45;;;186.76;0.00
34241;BME280;20503;50.200;19.508;2023-06-24T13:41:36;56.45;;;186.76;0.00
34241;BME280;20503;50.200;19.508;2023-06-24T13:46:42;56.45;;;186.76;0.00
34241;BME280;20503;50.200;19.508;2023-06-24T13:51:50;56.45;;;186.76;0.00
34241;BME280;20503;50.200;19.508;2023-06-24T13:56:58;56.45;;;186.76;0.00
34241;BME280;20503;50.200;19.508;2023-06-24T14:02:07;56.45;;;186.76;0.00
34241;BME280;20503;50.200;19.508;2023-06-24T14:07:15;56.45;;;186.76;0.00
34241;BME280;20503;50.200;19.508;2023-06-24T14:12:24;56.45;;;186.76;0.00
34241;BME280;20503;50.200;19.508;2023-06-24T14:17:32;56.45;;;186.76;0.00
34241;BME280;20503;50.200;19.508;2023-06-24T14:22:41;56.45;;;186.76;0.00
34241;BME280;20503;50.200;19.508;2023-06-24T14:27:50;56.45;;;186.76;0.00
34241;BME280;20503;50.200;19.508;2023-06-24T14:32:58;56.45;;;186.76;0.00
34241;BME280;20503;50.200;19.508;2023-06-24T14:38:06;56.45;;;186.76;0.00
34241;BME280;20503;50.200;19.508;2023-06-24T14:43:14;56.45;;;186.76;0.00
34241;BME280;20503;50.200;19.508;2023-06-24T14:48:23;56.45;;;186.76;0.00
34241;BME280;20503;50.200;19.508;2023-06-24T14:53:31;56.45;;;186.76;0.00
34241;BME280;20503;50.200;19.508;2023-06-24T14:58:39;56.45;;;186.76;0.00
34241;BME280;20503;50.200;19.508;2023-06-24T15:03:48;56.45;;;186.76;0.00
34241;BME280;20503;50.200;19.508;2023-06-24T15:08:57;56.45;;;186.76;0.00
34241;BME280;20503;50.200;19.508;2023-06-24T15:14:05;56.45;;;186.76;0.00
34241;BME280;20503;50.200;19.508;2023-06-24T15:19:13;56.45;;;186.76;0.00
34241;BME280;20503;50.200;19.508;2023-06-24T15:24:22;56.45;;;186.76;0.00
34241;BME280;20503;50.200;19.508;2023-06-24T15:29:30;56.45;;;186.76;0.00
34241;BME280;20503;50.200;19.508;2023-06-24T15:34:39;56.45;;;186.76;0.00
34241;BME280;20503;50.200;19.508;2023-06-24T15:39:48;56.45;;;186.76;0.00
34241;BME280;20503;50.200;19.508;2023-06-24T15:44:56;56.45;;;186.76;0.00
34241;BME280;20503;50.200;19.508;2023-06-24T15:50:05;56.45;;;186.76;0.00
34241;BME280;20503;50.200;19.508;2023-06-24T15:55:13;56.45;;;186.76;0.00
34241;BME280;20503;50.200;19.508;2023-06-24T16:00:21;56.45;;;186.76;0.00
34241;BME280;20503;50.200;19.508;2023-06-24T16:05:30;56.45;;;186.76;0.00
34241;BME280;20503;50.200;19.508;2023-06-24T16:10:38;56.45;;;186.76;0.00
34241;BME280;20503;50.200;19.508;2023-06-24T16:15:47;56.45;;;186.76;0.00
34241;BME280;20503;50.200;19.508;2023-06-24T16:20:55;56.45;;;186.76;0.00
34241;BME280;20503;50.200;19.508;2023-06-24T16:26:04;56.45;;;186.76;0.00
34241;BME280;20503;50.200;19.508;2023-06-24T16:31:13;56.45;;;186.76;0.00
34241;BME280;20503;50.200;19.508;2023-06-24T16:36:21;56.45;;;186.76;0.00
34241;BME280;20503;50.200;19.508;2023-06-24T16:41:30;56.45;;;186.76;0.00
34241;BME280;20503;50.200;19.508;2023-06-24T16:46:38;56.45;;;186.76;0.00
34241;BME280;20503;50.200;19.508;2023-06-24T16:51:47;56.45;;;186.76;0.00
34241;BME280;20503;50.200;19.508;2023-06-24T16:56:55;56.45;;;186.76;0.00
34241;BME280;20503;50.200;19.508;2023-06-24T17:02:03;56.45;;;186.76;0.00
34241;BME280;20503;50.200;19.508;2023-06-24T17:07:11;56.45;;;186.76;0.00
34241;BME280;20503;50.200;19.508;2023-06-24T17:12:19;56.45;;;186.76;0.00
34241;BME280;20503;50.200;19.508;2023-06-24T17:17:28;56.45;;;186.76;0.00
34241;BME280;20503;50.200;19.508;2023-06-24T17:22:37;56.45;;;186.76;0.00
34241;BME280;20503;50.200;19.508;2023-06-24T17:27:46;56.45;;;186.76;0.00
34241;BME280;20503;50.200;19.508;2023-06-24T17:32:53;56.45;;;186.76;0.00
34241;BME280;20503;50.200;19.508;2023-06-24T17:38:02;56.45;;;186.76;0.00
34241;BME280;20503;50.200;19.508;2023-06-24T17:43:10;56.45;;;186.76;0.00
34241;BME280;20503;50.200;19.508;2023-06-24T17:48:19;56.45;;;186.76;0.00
34241;BME280;20503;50.200;19.508;2023-06-24T17:53:27;56.45;;;186.76;0.00
34241;BME280;20503;50.200;19.508;2023-06-24T17:58:36;56.45;;;186.76;0.00
34241;BME280;20503;50.200;19.508;2023-06-24T18:03:44;56.45;;;186.76;0.00
34241;BME280;20503;50.200;19.508;2023-06-24T18:08:53;56.45;;;186.76;0.00
34241;BME280;20503;50.200;19.508;2023-06-24T18:14:01;56.45;;;186.76;0.00
34241;BME280;20503;50.200;19.508;2023-06-24T18:19:09;56.45;;;186.76;0.00
34241;BME280;20503;50.200;19.508;2023-06-24T18:24:17;56.45;;;186.76;0.00
34241;BME280;20503;50.200;19.508;2023-06-24T18:29:26;56.45;;;186.76;0.00
34241;BME280;20503;50.200;19.508;2023-06-24T18:34:34;56.45;;;186.76;0.00
34241;BME280;20503;50.200;19.508;2023-06-24T18:39:43;56.45;;;186.76;0.00
34241;BME280;20503;50.200;19.508;2023-06-24T18:44:51;56.45;;;186.76;0.00
34241;BME280;20503;50.200;19.508;2023-06-24T18:50:00;56.45;;;186.76;0.00
34241;BME280;20503;50.200;19.508;2023-06-24T18:55:08;56.45;;;186.76;0.00
34241;BME280;20503;50.200;19.508;2023-06-24T19:00:17;56.45;;;186.76;0.00
34241;BME280;20503;50.200;19.508;2023-06-24T19:05:26;56.45;;;186.76;0.00
34241;BME280;20503;50.200;19.508;2023-06-24T19:10:34;56.45;;;186.76;0.00
34241;BME280;20503;50.200;19.508;2023-06-24T19:15:43;56.45;;;186.76;0.00
34241;BME280;20503;50.200;19.508;2023-06-24T19:20:50;56.45;;;186.76;0.00
34241;BME280;20503;50.200;19.508;2023-06-24T19:25:59;56.45;;;186.76;0.00
34241;BME280;20503;50.200;19.508;2023-06-24T19:31:07;56.45;;;186.76;0.00
34241;BME280;20503;50.200;19.508;2023-06-24T19:36:15;56.45;;;186.76;0.00
34241;BME280;20503;50.200;19.508;2023-06-24T19:41:24;56.45;;;186.76;0.00
34241;BME280;20503;50.200;19.508;2023-06-24T19:46:34;56.45;;;186.76;0.00
34241;BME280;20503;50.200;19.508;2023-06-24T19:51:41;56.45;;;186.76;0.00
34241;BME280;20503;50.200;19.508;2023-06-24T19:56:50;56.45;;;186.76;0.00
34241;BME280;20503;50.200;19.508;2023-06-24T20:01:58;56.45;;;186.76;0.00
34241;BME280;20503;50.200;19.508;2023-06-24T20:07:06;56.45;;;186.76;0.00
34241;BME280;20503;50.200;19.508;2023-06-24T20:12:16;56.45;;;186.76;0.00
34241;BME280;20503;50.200;19.508;2023-06-24T20:17:23;56.45;;;186.76;0.00
34241;BME280;20503;50.200;19.508;2023-06-24T20:22:32;56.45;;;186.76;0.00
34241;BME280;20503;50.200;19.508;2023-06-24T20:27:40;56.45;;;186.76;0.00
34241;BME280;20503;50.200;19.508;2023-06-24T20:32:49;56.45;;;186.76;0.00
34241;BME280;20503;50.200;19.508;2023-06-24T20:37:57;56.45;;;186.76;0.00
34241;BME280;20503;50.200;19.508;2023-06-24T20:43:06;56.45;;;186.76;0.00
34241;BME280;20503;50.200;19.508;2023-06-24T20:48:15;56.45;;;186.76;0.00
34241;BME280;20503;50.200;19.508;2023-06-24T20:53:24;56.45;;;186.76;0.00
34241;BME280;20503;50.200;19.508;2023-06-24T20:58:32;56.45;;;186.76;0.00
34241;BME280;20503;50.200;19.508;2023-06-24T21:03:40;56.45;;;186.76;0.00
34241;BME280;20503;50.200;19.508;2023-06-24T21:08:48;56.45;;;186.76;0.00
34241;BME280;20503;50.200;19.508;2023-06-24T21:13:56;56.45;;;186.76;0.00
34241;BME280;20503;50.200;19.508;2023-06-24T21:19:05;56.45;;;186.76;0.00
34241;BME280;20503;50.200;19.508;2023-06-24T21:24:13;56.45;;;186.76;0.00
34241;BME280;20503;50.200;19.508;2023-06-24T21:29:22;56.45;;;186.76;0.00
34241;BME280;20503;50.200;19.508;2023-06-24T21:34:30;56.45;;;186.76;0.00
34241;BME280;20503;50.200;19.508;2023-06-24T21:39:38;56.45;;;186.76;0.00
34241;BME280;20503;50.200;19.508;2023-06-24T21:44:46;56.45;;;186.76;0.00
34241;BME280;20503;50.200;19.508;2023-06-24T21:49:54;56.45;;;186.76;0.00
34241;BME280;20503;50.200;19.508;2023-06-24T21:55:03;56.45;;;186.76;0.00
34241;BME280;20503;50.200;19.508;2023-06-24T22:00:12;56.45;;;186.76;0.00
34241;BME280;20503;50.200;19.508;2023-06-24T22:05:20;56.45;;;186.76;0.00
34241;BME280;20503;50.200;19.508;2023-06-24T22:10:28;56.45;;;186.76;0.00
34241;BME280;20503;50.200;19.508;2023-06-24T22:15:36;56.45;;;186.76;0.00
34241;BME280;20503;50.200;19.508;2023-06-24T22:20:44;56.45;;;186.76;0.00
34241;BME280;20503;50.200;19.508;2023-06-24T22:25:52;56.45;;;186.76;0.00
34241;BME280;20503;50.200;19.508;2023-06-24T22:31:01;56.45;;;186.76;0.00
34241;BME280;20503;50.200;19.508;2023-06-24T22:36:10;56.45;;;186.76;0.00
34241;BME280;20503;50.200;19.508;2023-06-24T22:41:17;56.45;;;186.76;0.00
34241;BME280;20503;50.200;19.508;2023-06-24T22:46:26;56.45;;;186.76;0.00
34241;BME280;20503;50.200;19.508;2023-06-24T22:51:34;56.45;;;186.76;0.00
34241;BME280;20503;50.200;19.508;2023-06-24T22:56:42;56.45;;;186.76;0.00
34241;BME280;20503;50.200;19.508;2023-06-24T23:01:51;56.45;;;186.76;0.00
34241;BME280;20503;50.200;19.508;2023-06-24T23:06:58;56.45;;;186.76;0.00
34241;BME280;20503;50.200;19.508;2023-06-24T23:12:09;56.45;;;186.76;0.00
34241;BME280;20503;50.200;19.508;2023-06-24T23:17:16;56.45;;;186.76;0.00
34241;BME280;20503;50.200;19.508;2023-06-24T23:22:24;56.45;;;186.76;0.00
34241;BME280;20503;50.200;19.508;2023-06-24T23:27:33;56.45;;;186.76;0.00
34241;BME280;20503;50.200;19.508;2023-06-24T23:32:40;56.45;;;186.76;0.00
34241;BME280;20503;50.200;19.508;2023-06-24T23:37:48;56.45;;;186.76;0.00
34241;BME280;20503;50.200;19.508;2023-06-24T23:42:57;56.45;;;186.76;0.00
34241;BME280;20503;50.200;19.508;2023-06-24T23:48:05;56.45;;;186.76;0.00
34241;BME280;20503;50.200;19.508;2023-06-24T23:53:13;56.45;;;186.76;0.00
34241;BME280;20503;50.200;19.508;2023-06-24T23:58:22;56.45;;;186.76;0.00
